Time;durP1;ratioP1;P1;durP2;ratioP2;P2;SDS_P1;SDS_P2;PMS_P1;PMS_P2;Temp;Humidity;BMP_temperature;BMP_pressure;BME280_temperature;BME280_humidity;BME280_pressure;Samples;Min_cycle;Max_cycle;Signal;HPM_P1;HPM_P2
2021/11/22 00:02:07;;;;;;;4.13;1.20;;;7.50;80.20;;;;;;5046091;28;20029;-82
2021/11/22 00:04:33;;;;;;;1.85;1.20;;;7.50;79.80;;;;;;5033620;28;20128;-82
2021/11/22 00:06:59;;;;;;;1.08;0.90;;;7.50;80.00;;;;;;5036904;28;20204;-82
2021/11/22 00:09:25;;;;;;;2.65;1.10;;;7.50;79.80;;;;;;5034968;28;20021;-82
2021/11/22 00:11:51;;;;;;;2.63;0.95;;;7.50;79.70;;;;;;5037389;28;20033;-82
2021/11/22 00:14:17;;;;;;;2.33;1.02;;;7.50;79.80;;;;;;5034011;28;20035;-82
2021/11/22 00:16:46;;;;;;;2.03;1.20;;;7.50;79.70;;;;;;5035482;28;20033;-82
2021/11/22 00:19:12;;;;;;;1.25;0.90;;;7.40;79.80;;;;;;5033732;28;20587;-82
2021/11/22 00:21:39;;;;;;;0.98;0.90;;;7.50;80.00;;;;;;5032966;28;20057;-82
2021/11/22 00:24:04;;;;;;;1.25;0.80;;;7.50;79.70;;;;;;5037396;28;20566;-81
2021/11/22 00:26:30;;;;;;;5.00;1.02;;;7.50;79.70;;;;;;5033458;28;20208;-82
2021/11/22 00:28:56;;;;;;;1.58;1.05;;;7.50;79.80;;;;;;5035911;28;20898;-82
2021/11/22 00:31:22;;;;;;;1.90;0.90;;;7.40;80.00;;;;;;5042090;28;20021;-81
2021/11/22 00:33:52;;;;;;;1.83;1.40;;;7.30;80.00;;;;;;5055301;28;20025;-82
2021/11/22 00:36:18;;;;;;;1.00;0.90;;;7.30;80.20;;;;;;5049190;28;20029;-82
2021/11/22 00:38:44;;;;;;;2.00;1.10;;;7.40;80.30;;;;;;5033413;28;20541;-82
2021/11/22 00:41:10;;;;;;;4.30;1.13;;;7.40;79.90;;;;;;5035158;28;20029;-82
2021/11/22 00:43:35;;;;;;;2.20;0.98;;;7.30;79.90;;;;;;5040353;28;20029;-82
2021/11/22 00:46:01;;;;;;;4.57;1.10;;;7.40;80.20;;;;;;5058266;28;20403;-82
2021/11/22 00:48:27;;;;;;;2.42;1.10;;;7.50;80.00;;;;;;5057234;28;20031;-82
2021/11/22 00:50:54;;;;;;;2.70;1.02;;;7.40;79.90;;;;;;5059884;28;20033;-82
2021/11/22 00:53:21;;;;;;;0.90;0.80;;;7.40;79.70;;;;;;5039628;28;20057;-82
2021/11/22 00:55:47;;;;;;;2.03;1.15;;;7.40;79.80;;;;;;5037385;28;20037;-82
2021/11/22 00:58:13;;;;;;;1.98;1.10;;;7.50;79.90;;;;;;5040448;28;20132;-82
2021/11/22 01:00:39;;;;;;;2.55;1.17;;;7.30;80.00;;;;;;5039449;28;20476;-82
2021/11/22 01:03:05;;;;;;;1.70;1.08;;;7.40;79.70;;;;;;5048483;28;20400;-82
2021/11/22 01:05:32;;;;;;;1.70;1.00;;;7.40;79.70;;;;;;5038503;28;20025;-82
2021/11/22 01:07:57;;;;;;;3.80;1.13;;;7.30;80.00;;;;;;5039950;28;20018;-82
2021/11/22 01:10:23;;;;;;;1.50;1.00;;;7.30;80.00;;;;;;5037975;28;20975;-82
2021/11/22 01:12:50;;;;;;;2.45;1.10;;;7.30;80.20;;;;;;5037047;28;20728;-82
2021/11/22 01:15:18;;;;;;;1.40;0.98;;;7.30;80.10;;;;;;5039099;28;20037;-82
2021/11/22 01:17:45;;;;;;;1.70;0.90;;;7.20;79.80;;;;;;5038407;28;20040;-82
2021/11/22 01:20:15;;;;;;;4.70;1.20;;;7.30;80.30;;;;;;5040163;28;20033;-82
2021/11/22 01:22:41;;;;;;;4.53;1.20;;;7.30;79.80;;;;;;5037827;28;20060;-82
2021/11/22 01:25:09;;;;;;;2.10;1.10;;;7.20;80.20;;;;;;5039886;28;20045;-81
2021/11/22 01:27:36;;;;;;;10.55;1.80;;;7.20;79.70;;;;;;5037776;28;20029;-82
2021/11/22 01:30:05;;;;;;;2.47;1.00;;;7.20;79.90;;;;;;5037983;28;20033;-81
2021/11/22 01:32:30;;;;;;;1.40;1.10;;;7.30;80.00;;;;;;5055368;28;20027;-81
2021/11/22 01:34:56;;;;;;;2.05;1.13;;;7.20;79.80;;;;;;5037811;28;20891;-82
2021/11/22 01:37:22;;;;;;;2.85;1.23;;;7.20;79.70;;;;;;5040269;28;20689;-82
2021/11/22 01:39:47;;;;;;;1.88;1.23;;;7.10;79.60;;;;;;5057425;28;20500;-82
2021/11/22 01:42:13;;;;;;;4.20;1.33;;;7.00;80.30;;;;;;5049393;28;20109;-82
2021/11/22 01:44:39;;;;;;;1.00;0.90;;;7.00;80.20;;;;;;5042563;28;20029;-82
2021/11/22 01:47:04;;;;;;;1.45;0.98;;;7.00;80.30;;;;;;5077514;28;20427;-82
2021/11/22 01:49:30;;;;;;;3.33;1.08;;;7.00;80.30;;;;;;5077612;28;20029;-82
2021/11/22 01:51:56;;;;;;;1.15;1.05;;;7.00;80.10;;;;;;5036318;28;20079;-82
2021/11/22 01:54:21;;;;;;;3.13;1.10;;;7.00;80.10;;;;;;5054718;28;20029;-82
2021/11/22 01:56:47;;;;;;;1.48;1.10;;;6.90;80.30;;;;;;5040892;28;20029;-81
2021/11/22 01:59:18;;;;;;;1.40;1.10;;;6.90;80.60;;;;;;5059490;28;20597;-81
2021/11/22 02:01:45;;;;;;;1.40;1.08;;;6.90;80.80;;;;;;5058531;28;20033;-82
2021/11/22 02:04:11;;;;;;;3.13;1.00;;;6.80;80.70;;;;;;5058638;28;20027;-82
2021/11/22 02:06:37;;;;;;;3.45;0.98;;;6.70;80.80;;;;;;5060536;28;20483;-81
2021/11/22 02:09:04;;;;;;;1.23;0.90;;;6.70;80.90;;;;;;5058640;28;20483;-81
2021/11/22 02:11:30;;;;;;;4.60;1.00;;;6.70;81.00;;;;;;5057677;28;20525;-81
2021/11/22 02:13:56;;;;;;;2.83;1.05;;;6.70;81.30;;;;;;5035908;28;20033;-82
2021/11/22 02:16:21;;;;;;;3.20;1.40;;;6.70;81.10;;;;;;5037462;28;20113;-82
2021/11/22 02:18:47;;;;;;;1.23;0.95;;;6.70;80.90;;;;;;5037411;28;20033;-82
2021/11/22 02:21:14;;;;;;;4.63;1.15;;;6.70;81.10;;;;;;5036829;28;20033;-81
2021/11/22 02:23:40;;;;;;;2.00;1.20;;;6.70;80.90;;;;;;5037934;28;20075;-81
2021/11/22 02:26:06;;;;;;;3.15;1.35;;;6.70;80.90;;;;;;5040486;28;20152;-82
2021/11/22 02:28:32;;;;;;;3.83;1.58;;;6.70;81.10;;;;;;5054267;28;20057;-82
2021/11/22 02:30:58;;;;;;;2.65;1.20;;;6.60;80.90;;;;;;5037087;28;20033;-82
2021/11/22 02:33:27;;;;;;;1.52;0.93;;;6.60;81.20;;;;;;5038190;28;20036;-82
2021/11/22 02:35:57;;;;;;;1.40;1.10;;;6.60;80.90;;;;;;5035836;28;20061;-81
2021/11/22 02:38:24;;;;;;;;;;;6.60;81.30;;;;;;5042811;28;20020;-82
2021/11/22 02:40:50;;;;;;;3.75;1.10;;;6.50;81.30;;;;;;5038473;28;19911;-82
2021/11/22 02:43:16;;;;;;;3.88;1.00;;;6.50;81.40;;;;;;5036676;28;20081;-81
2021/11/22 02:45:43;;;;;;;2.45;1.15;;;6.40;81.60;;;;;;5053528;28;20451;-82
2021/11/22 02:48:09;;;;;;;1.30;1.10;;;6.50;81.50;;;;;;5036500;28;20920;-82
2021/11/22 02:50:35;;;;;;;1.17;0.90;;;6.40;81.60;;;;;;5038420;28;20084;-82
2021/11/22 02:53:01;;;;;;;4.93;1.30;;;6.40;81.90;;;;;;5036676;28;20076;-82
2021/11/22 02:55:26;;;;;;;2.00;1.00;;;6.30;82.00;;;;;;5036516;28;20029;-82
2021/11/22 02:57:52;;;;;;;3.17;1.33;;;6.40;81.80;;;;;;5036668;28;20033;-82
2021/11/22 03:00:25;;;;;;;3.35;1.00;;;6.40;81.90;;;;;;5036368;28;20022;-82
2021/11/22 03:02:52;;;;;;;4.38;1.38;;;6.30;82.20;;;;;;5038089;28;20025;-82
2021/11/22 03:05:19;;;;;;;3.78;1.40;;;6.30;82.20;;;;;;5036599;28;20025;-82
2021/11/22 03:07:46;;;;;;;3.25;1.33;;;6.30;82.10;;;;;;5036129;28;20025;-82
2021/11/22 03:10:14;;;;;;;4.50;1.25;;;6.30;82.30;;;;;;5034431;28;20080;-82
2021/11/22 03:12:58;;;;;;;3.58;1.35;;;6.20;82.40;;;;;;5035085;28;20041;-82
2021/11/22 03:15:24;;;;;;;3.75;1.08;;;6.20;82.50;;;;;;5035884;28;20076;-81
2021/11/22 03:17:49;;;;;;;1.40;1.25;;;6.20;82.50;;;;;;5036040;28;20041;-82
2021/11/22 03:20:17;;;;;;;1.38;1.10;;;6.20;82.40;;;;;;5037071;28;20054;-82
2021/11/22 03:22:44;;;;;;;1.77;1.40;;;6.20;82.40;;;;;;5034084;28;20049;-82
2021/11/22 03:25:12;;;;;;;1.42;1.10;;;6.20;82.30;;;;;;5037654;28;20017;-81
2021/11/22 03:27:42;;;;;;;3.55;1.40;;;6.20;82.40;;;;;;5036203;28;20025;-81
2021/11/22 03:30:09;;;;;;;6.38;1.38;;;6.20;82.80;;;;;;5035664;28;20075;-81
2021/11/22 03:32:36;;;;;;;3.88;1.17;;;6.20;82.70;;;;;;5035385;28;20034;-82
2021/11/22 03:35:02;;;;;;;3.40;1.23;;;6.20;82.70;;;;;;5034845;28;20033;-82
2021/11/22 03:37:28;;;;;;;7.13;1.20;;;6.20;82.80;;;;;;5038169;28;20091;-82
2021/11/22 03:39:54;;;;;;;6.15;1.60;;;6.20;82.90;;;;;;5054720;28;20029;-82
2021/11/22 03:42:22;;;;;;;3.17;1.15;;;6.10;83.10;;;;;;5036176;28;20067;-82
2021/11/22 03:44:49;;;;;;;1.02;0.93;;;6.10;83.40;;;;;;5041803;28;20427;-82
2021/11/22 03:47:15;;;;;;;2.17;1.38;;;6.10;83.10;;;;;;5071080;28;20082;-82
2021/11/22 03:49:41;;;;;;;3.70;1.50;;;6.10;83.50;;;;;;5035241;28;20029;-82
2021/11/22 03:52:09;;;;;;;3.25;1.30;;;6.20;83.50;;;;;;5035428;28;20026;-81
2021/11/22 03:54:35;;;;;;;1.98;1.10;;;6.10;83.50;;;;;;5052915;28;20097;-82
2021/11/22 03:57:01;;;;;;;1.23;1.05;;;6.20;83.30;;;;;;5055115;28;20098;-82
2021/11/22 03:59:26;;;;;;;4.10;1.27;;;6.10;83.60;;;;;;5049966;28;20029;-82
2021/11/22 04:01:52;;;;;;;2.35;1.20;;;6.10;83.70;;;;;;5035473;28;20527;-82
2021/11/22 04:04:23;;;;;;;1.75;1.42;;;6.10;83.60;;;;;;5035219;28;20026;-82
2021/11/22 04:06:48;;;;;;;5.13;1.30;;;6.10;83.60;;;;;;5034624;28;20104;-82
2021/11/22 04:09:14;;;;;;;3.05;1.40;;;6.20;83.60;;;;;;5035182;28;20130;-82
2021/11/22 04:11:40;;;;;;;3.60;1.60;;;6.10;83.70;;;;;;5037343;28;20022;-82
2021/11/22 04:14:06;;;;;;;2.28;1.17;;;6.20;83.60;;;;;;5034948;28;20488;-82
2021/11/22 04:16:32;;;;;;;4.82;1.70;;;6.20;83.70;;;;;;5035544;28;20037;-82
2021/11/22 04:18:58;;;;;;;3.60;1.23;;;6.20;83.40;;;;;;5034913;28;20030;-82
2021/11/22 04:21:28;;;;;;;2.42;1.30;;;6.10;83.60;;;;;;5035911;28;20032;-82
2021/11/22 04:23:56;;;;;;;4.10;1.67;;;6.10;83.50;;;;;;5035942;28;20372;-82
2021/11/22 04:26:23;;;;;;;4.97;1.50;;;6.10;83.90;;;;;;5035045;28;20034;-82
2021/11/22 04:28:49;;;;;;;2.90;1.40;;;6.20;83.50;;;;;;5037137;28;20120;-82
2021/11/22 04:31:15;;;;;;;2.28;1.40;;;6.20;83.20;;;;;;5034968;28;20022;-82
2021/11/22 04:33:41;;;;;;;3.20;1.77;;;6.10;83.60;;;;;;5036916;28;20026;-82
2021/11/22 04:36:07;;;;;;;2.55;1.27;;;6.10;83.70;;;;;;5034796;28;20029;-82
2021/11/22 04:38:38;;;;;;;4.93;1.67;;;6.10;83.50;;;;;;5045590;28;20025;-82
2021/11/22 04:41:04;;;;;;;2.03;1.30;;;6.10;83.60;;;;;;5054022;28;20036;-82
2021/11/22 04:43:30;;;;;;;2.22;1.30;;;6.10;83.60;;;;;;5041186;28;20033;-83
2021/11/22 04:45:56;;;;;;;5.95;1.70;;;6.00;83.70;;;;;;5063057;28;20048;-82
2021/11/22 04:48:21;;;;;;;3.65;1.38;;;6.00;84.20;;;;;;5060158;28;20391;-82
2021/11/22 04:50:47;;;;;;;3.97;1.70;;;6.00;84.20;;;;;;5035600;28;20029;-82
2021/11/22 04:53:13;;;;;;;4.85;1.35;;;6.00;84.00;;;;;;5033970;28;20037;-82
2021/11/22 04:55:38;;;;;;;1.90;1.40;;;6.00;84.20;;;;;;5035311;28;20036;-82
2021/11/22 04:58:05;;;;;;;4.35;1.60;;;6.00;84.00;;;;;;5040161;28;20159;-82
2021/11/22 05:00:31;;;;;;;3.10;1.30;;;6.00;84.30;;;;;;5054582;28;20130;-82
2021/11/22 05:02:57;;;;;;;2.63;1.50;;;6.00;84.20;;;;;;5055663;28;20044;-82
2021/11/22 05:05:23;;;;;;;5.20;1.30;;;6.00;84.40;;;;;;5054164;28;20032;-82
2021/11/22 05:07:49;;;;;;;1.48;1.05;;;5.90;84.30;;;;;;5035517;28;20029;-82
2021/11/22 05:10:17;;;;;;;7.60;1.65;;;5.80;85.00;;;;;;5049924;28;20025;-82
2021/11/22 05:12:46;;;;;;;6.00;2.03;;;5.90;84.90;;;;;;5034598;28;20025;-81
2021/11/22 05:15:13;;;;;;;1.75;1.52;;;5.90;84.60;;;;;;5033915;28;20033;-82
2021/11/22 05:17:40;;;;;;;4.50;1.52;;;6.00;84.70;;;;;;5034305;28;20083;-82
2021/11/22 05:20:07;;;;;;;5.45;1.70;;;6.00;84.60;;;;;;5036643;28;20093;-82
2021/11/22 05:22:33;;;;;;;2.70;1.30;;;5.90;84.40;;;;;;5049301;28;20049;-82
2021/11/22 05:24:58;;;;;;;2.47;1.58;;;6.00;84.40;;;;;;5036449;28;20395;-82
2021/11/22 05:27:28;;;;;;;2.22;1.38;;;5.90;84.50;;;;;;5034612;28;20125;-82
2021/11/22 05:29:55;;;;;;;2.65;1.20;;;5.90;84.80;;;;;;5036180;28;20495;-82
2021/11/22 05:32:21;;;;;;;4.00;1.95;;;5.90;84.70;;;;;;5038161;28;20030;-82
2021/11/22 05:34:50;;;;;;;2.70;1.48;;;6.00;84.80;;;;;;5037641;28;20121;-82
2021/11/22 05:37:16;;;;;;;7.38;1.60;;;6.00;84.60;;;;;;5040010;28;20025;-82
2021/11/22 05:39:43;;;;;;;3.65;1.58;;;6.00;84.60;;;;;;5054056;28;20025;-83
2021/11/22 05:42:08;;;;;;;4.55;1.80;;;6.00;84.60;;;;;;5044733;28;20036;-85
2021/11/22 05:44:35;;;;;;;3.13;1.42;;;5.90;84.70;;;;;;5040095;28;20025;-83
2021/11/22 05:47:06;;;;;;;1.90;1.33;;;6.00;84.70;;;;;;5078084;28;20062;-78
2021/11/22 05:49:35;;;;;;;3.45;1.35;;;5.90;84.60;;;;;;5065176;28;20083;-81
2021/11/22 05:52:03;;;;;;;4.40;1.48;;;5.90;84.60;;;;;;5037562;28;20028;-83
2021/11/22 05:54:31;;;;;;;1.77;1.25;;;5.90;84.50;;;;;;5037985;28;20037;-79
2021/11/22 05:56:58;;;;;;;5.63;1.17;;;6.00;84.40;;;;;;5036256;28;20021;-80
2021/11/22 05:59:24;;;;;;;5.00;1.40;;;6.00;84.40;;;;;;5036127;28;20030;-80
2021/11/22 06:01:50;;;;;;;2.05;1.33;;;6.10;84.50;;;;;;5035998;28;20561;-79
2021/11/22 06:04:16;;;;;;;2.08;1.20;;;6.00;84.40;;;;;;5037690;28;20041;-80
2021/11/22 06:06:42;;;;;;;2.63;1.25;;;6.00;84.30;;;;;;5036980;28;20676;-79
2021/11/22 06:09:08;;;;;;;4.47;1.67;;;6.00;84.30;;;;;;5037681;28;20095;-82
2021/11/22 06:11:36;;;;;;;2.75;1.45;;;6.00;84.30;;;;;;5036286;28;20037;-88
2021/11/22 06:14:02;;;;;;;2.63;1.50;;;6.00;84.40;;;;;;5036446;28;20037;-86
2021/11/22 06:16:28;;;;;;;6.07;1.40;;;5.90;84.40;;;;;;5044998;28;20040;-84
2021/11/22 06:18:54;;;;;;;6.30;1.55;;;5.90;84.50;;;;;;5046993;28;20040;-83
2021/11/22 06:21:20;;;;;;;4.13;1.83;;;5.90;84.30;;;;;;5048158;28;20025;-83
2021/11/22 06:23:45;;;;;;;4.32;1.38;;;5.90;84.30;;;;;;5040027;28;20111;-83
2021/11/22 06:26:11;;;;;;;2.88;1.58;;;5.80;84.40;;;;;;5038609;28;20021;-82
2021/11/22 06:28:37;;;;;;;3.70;1.50;;;5.80;84.40;;;;;;5038320;28;20018;-82
2021/11/22 06:31:04;;;;;;;5.40;2.13;;;5.80;84.60;;;;;;5055389;28;20445;-85
2021/11/22 06:33:29;;;;;;;4.95;1.45;;;5.80;84.40;;;;;;5046038;28;20112;-81
2021/11/22 06:35:55;;;;;;;6.00;1.52;;;5.80;84.70;;;;;;5029528;28;20563;-80
2021/11/22 06:38:21;;;;;;;4.43;1.75;;;5.80;84.50;;;;;;5043298;28;20025;-83
2021/11/22 06:40:46;;;;;;;8.32;2.42;;;5.80;84.30;;;;;;5045679;28;20028;-82
2021/11/22 06:43:12;;;;;;;8.10;2.50;;;5.90;84.20;;;;;;5043223;28;20025;-82
2021/11/22 06:45:38;;;;;;;3.90;2.00;;;5.90;84.20;;;;;;5050667;28;20035;-78
2021/11/22 06:48:04;;;;;;;1.42;1.20;;;5.90;83.90;;;;;;5042585;28;20024;-80
2021/11/22 06:50:31;;;;;;;4.28;1.83;;;5.90;84.00;;;;;;5036033;28;20064;-81
2021/11/22 06:52:56;;;;;;;2.38;1.20;;;6.00;83.60;;;;;;5035345;28;20037;-79
2021/11/22 06:55:25;;;;;;;8.32;1.85;;;6.00;83.70;;;;;;5035746;28;20041;-79
2021/11/22 06:57:51;;;;;;;3.78;1.88;;;6.00;83.60;;;;;;5055615;28;20033;-79
2021/11/22 07:00:18;;;;;;;6.18;1.90;;;5.90;83.70;;;;;;5055981;28;20033;-80
2021/11/22 07:02:45;;;;;;;2.72;1.30;;;6.00;83.80;;;;;;5043303;28;20022;-80
2021/11/22 07:05:11;;;;;;;3.63;1.67;;;5.90;83.80;;;;;;5035595;28;20040;-80
2021/11/22 07:07:37;;;;;;;1.48;1.30;;;5.90;84.00;;;;;;5034727;28;20022;-80
2021/11/22 07:10:04;;;;;;;3.03;1.40;;;5.80;83.90;;;;;;5036027;28;20028;-80
2021/11/22 07:12:33;;;;;;;2.40;1.35;;;5.80;84.00;;;;;;5042635;28;20104;-80
2021/11/22 07:14:59;;;;;;;3.92;1.55;;;5.90;83.70;;;;;;5035875;28;20152;-81
2021/11/22 07:17:25;;;;;;;3.38;1.30;;;5.80;84.30;;;;;;5035882;28;20487;-81
2021/11/22 07:19:51;;;;;;;6.53;1.80;;;5.80;84.30;;;;;;5035753;28;20033;-81
2021/11/22 07:22:16;;;;;;;3.50;1.50;;;5.80;84.00;;;;;;5035470;28;20041;-81
2021/11/22 07:24:44;;;;;;;2.53;1.70;;;5.90;84.10;;;;;;5049766;28;20127;-81
2021/11/22 07:27:10;;;;;;;3.70;1.73;;;5.90;84.20;;;;;;5055688;28;20029;-81
2021/11/22 07:29:38;;;;;;;2.08;1.80;;;5.80;84.20;;;;;;5044874;28;20028;-81
2021/11/22 07:32:04;;;;;;;4.28;1.80;;;5.80;84.60;;;;;;5035838;28;20025;-81
2021/11/22 07:34:30;;;;;;;2.40;1.65;;;5.80;84.50;;;;;;5035889;28;20026;-81
2021/11/22 07:36:55;;;;;;;3.33;1.70;;;5.90;84.20;;;;;;5033889;28;20036;-81
2021/11/22 07:39:21;;;;;;;6.53;2.03;;;6.00;84.10;;;;;;5034053;28;20088;-81
2021/11/22 07:41:47;;;;;;;7.18;2.38;;;6.00;83.90;;;;;;5035200;28;20029;-81
2021/11/22 07:44:13;;;;;;;3.47;1.98;;;6.00;83.70;;;;;;5035793;28;20025;-81
2021/11/22 07:46:38;;;;;;;4.20;1.83;;;6.00;84.10;;;;;;5073193;28;20020;-81
2021/11/22 07:49:04;;;;;;;7.70;2.20;;;6.10;83.50;;;;;;5074277;28;20161;-81
2021/11/22 07:51:30;;;;;;;4.93;1.85;;;6.10;83.80;;;;;;5059660;28;20030;-81
2021/11/22 07:53:56;;;;;;;10.95;3.00;;;6.10;83.60;;;;;;5034984;28;20480;-81
2021/11/22 07:56:21;;;;;;;4.32;2.10;;;6.20;83.80;;;;;;5035216;28;20040;-81
2021/11/22 07:58:47;;;;;;;9.15;2.45;;;6.20;83.50;;;;;;5035678;28;20102;-81
2021/11/22 08:01:13;;;;;;;8.00;2.35;;;6.20;83.50;;;;;;5033670;28;20037;-81
2021/11/22 08:03:39;;;;;;;3.95;1.98;;;6.20;83.40;;;;;;5035191;28;20037;-81
2021/11/22 08:06:04;;;;;;;4.93;2.25;;;6.20;83.20;;;;;;5035211;28;20033;-81
2021/11/22 08:08:32;;;;;;;4.68;2.30;;;6.20;83.60;;;;;;5035194;28;20061;-81
2021/11/22 08:13:41;;;;;;;3.80;1.80;;;6.30;83.20;;;;;;5035064;28;20033;-81
2021/11/22 08:16:08;;;;;;;5.38;2.28;;;6.30;83.10;;;;;;5035189;28;20029;-81
2021/11/22 08:18:36;;;;;;;4.28;1.73;;;6.30;83.20;;;;;;5034752;28;20025;-81
2021/11/22 08:21:03;;;;;;;6.35;1.70;;;6.30;83.00;;;;;;5034974;28;20057;-81
2021/11/22 08:23:29;;;;;;;5.10;1.92;;;6.40;83.00;;;;;;5038456;28;20457;-81
2021/11/22 08:25:55;;;;;;;5.40;1.90;;;6.40;83.00;;;;;;5055116;28;20021;-81
2021/11/22 08:28:22;;;;;;;6.72;2.33;;;6.40;82.70;;;;;;5041511;28;20057;-82
2021/11/22 08:30:48;;;;;;;7.93;2.58;;;6.30;82.70;;;;;;5034727;28;20014;-81
2021/11/22 08:33:15;;;;;;;7.97;2.90;;;6.50;83.00;;;;;;5033457;28;20030;-82
2021/11/22 08:35:50;;;;;;;8.13;2.65;;;6.50;82.90;;;;;;5034946;28;20048;-81
2021/11/22 08:38:17;;;;;;;8.95;2.15;;;6.50;82.70;;;;;;5033210;28;20029;-81
2021/11/22 08:40:44;;;;;;;5.30;2.20;;;6.60;82.40;;;;;;5034825;28;20021;-81
2021/11/22 08:43:12;;;;;;;6.15;1.85;;;6.60;82.30;;;;;;5033405;28;20032;-81
2021/11/22 08:45:39;;;;;;;4.75;2.10;;;6.70;82.30;;;;;;5034878;28;20026;-81
2021/11/22 08:48:05;;;;;;;6.05;1.88;;;6.70;82.20;;;;;;5033063;28;20034;-81
2021/11/22 08:50:31;;;;;;;7.70;2.35;;;6.70;81.70;;;;;;5033637;28;20782;-81
2021/11/22 08:52:57;;;;;;;12.45;2.78;;;6.80;81.90;;;;;;5034790;28;20099;-81
2021/11/22 08:55:23;;;;;;;4.93;2.00;;;6.90;81.30;;;;;;5033301;28;20025;-81
2021/11/22 08:57:49;;;;;;;8.38;2.15;;;6.90;81.40;;;;;;5034676;28;20144;-81
2021/11/22 09:00:24;;;;;;;6.35;2.95;;;7.00;81.10;;;;;;5034746;28;20029;-81
2021/11/22 09:02:50;;;;;;;8.02;7.22;;;7.30;80.30;;;;;;5033066;28;20029;-81
2021/11/22 09:05:16;;;;;;;5.00;4.10;;;8.00;78.50;;;;;;5036278;28;20029;-82
2021/11/22 09:07:42;;;;;;;5.30;2.58;;;8.70;75.60;;;;;;5038124;28;20030;-82
2021/11/22 09:10:07;;;;;;;5.13;3.53;;;9.50;72.80;;;;;;5038235;28;20183;-82
2021/11/22 09:12:33;;;;;;;6.57;3.10;;;10.20;70.10;;;;;;5038421;28;20065;-82
2021/11/22 09:14:59;;;;;;;7.20;6.20;;;10.80;68.60;;;;;;5038471;28;20033;-82
2021/11/22 09:17:25;;;;;;;10.50;9.80;;;11.20;66.90;;;;;;5038207;28;20108;-83
2021/11/22 09:19:50;;;;;;;12.25;11.45;;;11.70;64.10;;;;;;5038021;28;20029;-83
2021/11/22 09:22:16;;;;;;;17.15;16.25;;;12.10;63.50;;;;;;5037909;28;20141;-83
2021/11/22 09:24:43;;;;;;;1999.90;999.90;;;12.20;61.00;;;;;;5051987;28;20032;-83
2021/11/22 09:27:09;;;;;;;1999.90;999.90;;;12.30;60.70;;;;;;5058115;28;20039;-83
2021/11/22 09:29:36;;;;;;;18.13;17.42;;;12.20;60.80;;;;;;5039352;28;20025;-83
2021/11/22 09:32:02;;;;;;;9.50;8.73;;;12.20;60.70;;;;;;5037965;28;20092;-83
2021/11/22 09:34:28;;;;;;;5.38;2.30;;;11.90;61.20;;;;;;5038025;28;20081;-82
2021/11/22 09:36:54;;;;;;;3.25;1.00;;;11.30;62.00;;;;;;5037421;28;20470;-82
2021/11/22 09:39:21;;;;;;;3.53;1.95;;;10.90;64.20;;;;;;5052853;28;20123;-82
2021/11/22 09:41:48;;;;;;;5.35;1.10;;;10.30;66.20;;;;;;5037896;28;20076;-81
2021/11/22 09:44:15;;;;;;;6.07;1.30;;;10.00;66.80;;;;;;5055155;28;20037;-82
2021/11/22 09:46:41;;;;;;;3.40;1.17;;;9.70;67.60;;;;;;5076906;28;20071;-82
2021/11/22 09:49:07;;;;;;;2.13;1.13;;;9.50;68.00;;;;;;5077635;28;20032;-82
2021/11/22 09:51:33;;;;;;;2.40;1.58;;;9.40;68.10;;;;;;5065381;28;20025;-82
2021/11/22 09:53:59;;;;;;;5.07;1.73;;;9.20;68.90;;;;;;5037457;28;20030;-82
2021/11/22 09:56:25;;;;;;;2.95;1.80;;;9.20;68.50;;;;;;5037324;28;20021;-82
2021/11/22 09:58:52;;;;;;;2.63;1.70;;;9.10;69.00;;;;;;5037557;28;20463;-82
2021/11/22 10:01:18;;;;;;;8.50;2.55;;;9.20;69.30;;;;;;5037490;28;20030;-82
2021/11/22 10:04:19;;;;;;;5.30;1.92;;;9.20;69.10;;;;;;5037268;28;20067;-82
2021/11/22 10:06:56;;;;;;;1.77;1.63;;;9.20;68.40;;;;;;5055725;28;20061;-82
2021/11/22 10:09:34;;;;;;;2.47;1.70;;;9.20;68.50;;;;;;5055920;28;20036;-82
2021/11/22 10:12:06;;;;;;;2.33;1.10;;;9.20;68.00;;;;;;5048819;28;20085;-82
2021/11/22 10:14:43;;;;;;;2.90;2.03;;;9.20;67.70;;;;;;5037362;28;20025;-83
2021/11/22 10:17:25;;;;;;;1.50;1.08;;;9.20;67.70;;;;;;5035523;28;20052;-82
2021/11/22 10:20:06;;;;;;;1.92;1.05;;;9.30;67.70;;;;;;5037191;28;20162;-82
2021/11/22 10:22:47;;;;;;;3.95;1.00;;;9.30;67.40;;;;;;5036738;28;20061;-82
2021/11/22 10:25:21;;;;;;;2.50;1.30;;;9.30;67.20;;;;;;5037705;28;20025;-82
2021/11/22 10:27:48;;;;;;;2.58;1.20;;;9.30;66.50;;;;;;5037110;28;20036;-83
2021/11/22 10:30:23;;;;;;;3.05;1.08;;;9.30;66.20;;;;;;5036572;28;20034;-82
2021/11/22 10:32:52;;;;;;;4.85;1.02;;;9.40;65.50;;;;;;5036991;28;20033;-82
2021/11/22 10:35:18;;;;;;;2.55;1.00;;;9.40;64.90;;;;;;5036693;28;20032;-82
2021/11/22 10:38:00;;;;;;;2.80;1.48;;;9.40;65.00;;;;;;5036832;28;20033;-82
2021/11/22 10:40:28;;;;;;;2.53;1.20;;;9.40;63.60;;;;;;5036568;28;20096;-82
2021/11/22 10:42:56;;;;;;;2.83;0.90;;;9.50;64.40;;;;;;5036538;28;20021;-82
2021/11/22 10:45:33;;;;;;;2.50;1.20;;;9.50;62.10;;;;;;5053154;28;20023;-82
2021/11/22 10:48:16;;;;;;;1.00;0.68;;;9.60;63.00;;;;;;5044907;28;20030;-82
2021/11/22 10:50:50;;;;;;;1.23;0.70;;;9.60;63.00;;;;;;5036259;28;20030;-82
2021/11/22 10:53:25;;;;;;;4.30;1.20;;;9.60;61.20;;;;;;5036462;28;20687;-82
2021/11/22 10:55:51;;;;;;;1.98;0.88;;;9.70;60.80;;;;;;5036599;28;20067;-82
2021/11/22 10:58:35;;;;;;;1.98;1.25;;;9.70;60.60;;;;;;5036422;28;20492;-82
2021/11/22 11:01:16;;;;;;;2.15;1.05;;;9.70;60.60;;;;;;5036372;28;20068;-82
2021/11/22 11:03:52;;;;;;;8.63;2.22;;;9.70;60.10;;;;;;5036507;28;20040;-82
2021/11/22 11:06:18;;;;;;;5.82;2.05;;;9.80;60.80;;;;;;5035986;28;20430;-83
2021/11/22 11:08:45;;;;;;;1.83;1.05;;;9.80;60.60;;;;;;5036186;28;20025;-83
2021/11/22 11:11:15;;;;;;;1.50;0.95;;;9.80;60.10;;;;;;5036074;28;20391;-83
2021/11/22 11:13:50;;;;;;;3.42;1.10;;;9.90;60.20;;;;;;5036203;28;20120;-82
2021/11/22 11:16:18;;;;;;;1.77;0.93;;;9.90;58.70;;;;;;5034764;28;20061;-83
2021/11/22 11:18:58;;;;;;;9.38;2.20;;;9.90;57.50;;;;;;5036170;28;20110;-83
2021/11/22 11:21:31;;;;;;;2.28;1.00;;;9.90;57.60;;;;;;5035662;28;20025;-82
2021/11/22 11:23:59;;;;;;;1.65;1.05;;;10.00;57.40;;;;;;5043510;28;20029;-82
2021/11/22 11:26:26;;;;;;;2.30;0.98;;;9.90;56.70;;;;;;5049827;28;20014;-83
2021/11/22 11:28:53;;;;;;;2.15;0.95;;;10.00;57.90;;;;;;5035256;28;20466;-83
2021/11/22 11:31:19;;;;;;;4.65;1.70;;;10.10;57.10;;;;;;5035737;28;20017;-83
2021/11/22 11:33:45;;;;;;;3.42;1.52;;;10.10;56.90;;;;;;5035874;28;20033;-83
2021/11/22 11:36:49;;;;;;;5.05;1.98;;;10.10;56.30;;;;;;5050717;28;20029;-82
2021/11/22 11:39:23;;;;;;;5.75;1.48;;;10.10;55.80;;;;;;5035652;28;20072;-82
2021/11/22 11:42:27;;;;;;;2.05;1.17;;;10.10;54.60;;;;;;5035559;28;20037;-82
2021/11/22 11:45:05;;;;;;;6.15;3.05;;;10.10;54.40;;;;;;5043979;28;20028;-83
2021/11/22 11:47:50;;;;;;;3.95;1.77;;;10.30;56.60;;;;;;5075466;28;20056;-83
2021/11/22 11:50:21;;;;;;;1.67;0.98;;;10.30;55.10;;;;;;5075271;28;20046;-83
2021/11/22 11:52:59;;;;;;;2.70;1.20;;;10.30;55.00;;;;;;5056901;28;20402;-83
2021/11/22 11:55:25;;;;;;;6.03;2.75;;;10.40;55.60;;;;;;5055308;28;20104;-89
2021/11/22 11:58:25;;;;;;;4.85;2.55;;;10.40;55.40;;;;;;5055625;28;20544;-87
2021/11/22 12:00:58;;;;;;;5.37;1.97;;;10.50;54.30;;;;;;5045701;28;20025;-87
2021/11/22 12:03:26;;;;;;;2.55;1.50;;;10.40;53.90;;;;;;5035234;28;20068;-86
2021/11/22 12:05:53;;;;;;;4.97;2.10;;;10.50;54.30;;;;;;5035221;28;20467;-87
2021/11/22 12:08:29;;;;;;;4.65;2.47;;;10.40;53.80;;;;;;5035046;28;20098;-86
2021/11/22 12:10:58;;;;;;;5.05;2.22;;;10.60;54.00;;;;;;5035411;28;20036;-84
2021/11/22 12:13:44;;;;;;;1.13;0.75;;;10.60;52.90;;;;;;5035223;28;20148;-82
2021/11/22 12:16:09;;;;;;;4.68;1.38;;;10.50;51.70;;;;;;5047074;28;20471;-87
2021/11/22 12:18:37;;;;;;;3.95;1.30;;;10.50;52.00;;;;;;5034144;28;20026;-87
2021/11/22 12:21:19;;;;;;;2.15;1.40;;;10.50;50.30;;;;;;5044698;28;20372;-87
2021/11/22 12:23:48;;;;;;;1.55;1.08;;;10.50;51.00;;;;;;5055071;28;20139;-86
2021/11/22 12:26:24;;;;;;;3.90;1.67;;;10.50;50.20;;;;;;5053980;28;20017;-86
2021/11/22 12:28:51;;;;;;;1.58;0.90;;;10.70;51.90;;;;;;5054951;28;20033;-81
2021/11/22 12:31:24;;;;;;;2.22;1.30;;;10.70;50.20;;;;;;5054821;28;20108;-81
2021/11/22 12:33:55;;;;;;;4.22;2.00;;;10.70;50.60;;;;;;5051779;28;20060;-87
2021/11/22 12:36:23;;;;;;;1.10;0.88;;;10.70;51.00;;;;;;5054974;28;20513;-88
2021/11/22 12:38:49;;;;;;;0.90;0.65;;;10.80;50.20;;;;;;5050836;28;20578;-87
2021/11/22 12:41:25;;;;;;;2.10;1.27;;;10.70;49.20;;;;;;5054842;28;20781;-85
2021/11/22 12:43:55;;;;;;;3.10;2.05;;;10.70;49.60;;;;;;5037747;28;20033;-84
2021/11/22 12:46:23;;;;;;;5.78;1.75;;;10.70;50.40;;;;;;5057356;28;20113;-81
2021/11/22 12:48:56;;;;;;;3.53;1.40;;;10.70;49.90;;;;;;5038964;28;20105;-81
2021/11/22 12:51:23;;;;;;;4.07;1.52;;;10.60;48.80;;;;;;5038890;28;20036;-79
2021/11/22 12:54:04;;;;;;;4.28;2.47;;;10.60;49.60;;;;;;5038539;28;20024;-82
2021/11/22 12:56:33;;;;;;;2.03;1.33;;;10.50;49.10;;;;;;5037832;28;20516;-86
2021/11/22 12:59:22;;;;;;;1.53;0.97;;;10.60;48.60;;;;;;5036969;28;20029;-81
2021/11/22 13:01:51;;;;;;;2.13;1.27;;;10.70;48.50;;;;;;5038777;28;20049;-80
2021/11/22 13:04:38;;;;;;;5.22;2.22;;;10.70;48.60;;;;;;5038589;28;20067;-80